createdAt,value
2019-03-22T00:00:58.727Z,59.33
2019-03-22T00:03:30.209Z,54.77
2019-03-22T00:06:01.325Z,62.47
2019-03-22T00:08:32.430Z,64.93
2019-03-22T00:11:03.464Z,58.57
2019-03-22T00:13:41.104Z,62.10
2019-03-22T00:16:12.237Z,59.47
2019-03-22T00:18:43.303Z,64.10
2019-03-22T00:21:14.506Z,63.40
2019-03-22T00:23:45.643Z,67.83
2019-03-22T00:26:17.195Z,61.37
2019-03-22T00:28:48.590Z,61.40
2019-03-22T00:31:20.573Z,59.20
2019-03-22T00:33:51.905Z,58.40
2019-03-22T00:36:23.034Z,67.30
2019-03-22T00:38:57.429Z,63.73
2019-03-22T00:41:28.418Z,69.90
2019-03-22T00:43:59.611Z,68.17
2019-03-22T00:46:30.949Z,62.80
2019-03-22T00:49:01.966Z,66.37
2019-03-22T00:51:32.955Z,72.33
2019-03-22T00:54:03.974Z,64.80
2019-03-22T00:56:35.093Z,55.83
2019-03-22T00:59:08.848Z,60.93
2019-03-22T01:01:39.892Z,72.03
2019-03-22T01:04:12.117Z,65.37
2019-03-22T01:06:43.230Z,58.00
2019-03-22T01:09:14.214Z,61.90
2019-03-22T01:11:45.207Z,62.70
2019-03-22T01:14:16.217Z,63.77
2019-03-22T01:16:47.355Z,60.67
2019-03-22T01:19:18.712Z,58.33
2019-03-22T01:21:49.764Z,56.63
2019-03-22T01:24:21.299Z,57.73
2019-03-22T01:26:52.124Z,66.63
2019-03-22T01:29:23.717Z,65.50
2019-03-22T01:31:55.249Z,63.37
2019-03-22T01:34:26.429Z,57.33
2019-03-22T01:36:57.953Z,59.20
2019-03-22T01:39:28.945Z,58.33
2019-03-22T01:42:00.329Z,63.80
2019-03-22T01:44:31.847Z,73.83
2019-03-22T01:47:03.103Z,59.07
2019-03-22T01:49:34.100Z,58.80
2019-03-22T01:52:05.736Z,60.03
2019-03-22T01:54:36.742Z,64.13
2019-03-22T01:57:08.263Z,65.50
2019-03-22T01:59:39.206Z,59.20
2019-03-22T02:02:10.792Z,52.97
2019-03-22T02:04:42.086Z,56.87
2019-03-22T02:07:13.182Z,62.47
2019-03-22T02:09:44.345Z,57.03
2019-03-22T02:12:15.682Z,59.97
2019-03-22T02:14:46.781Z,57.23
2019-03-22T02:17:17.845Z,66.10
2019-03-22T02:19:49.337Z,62.87
2019-03-22T02:22:20.510Z,63.67
2019-03-22T02:24:52.283Z,64.50
2019-03-22T02:27:23.292Z,64.23
2019-03-22T02:29:55.216Z,69.40
2019-03-22T02:32:26.663Z,76.40
2019-03-22T02:34:57.611Z,68.50
2019-03-22T02:37:28.861Z,69.00
2019-03-22T02:40:00.013Z,70.00
2019-03-22T02:42:31.049Z,89.93
2019-03-22T02:45:02.339Z,87.33
2019-03-22T02:47:33.533Z,114.53
2019-03-22T02:50:17.227Z,90.60
2019-03-22T02:52:38.564Z,100.13
2019-03-22T02:55:10.570Z,217.77
2019-03-22T02:57:41.907Z,173.37
2019-03-22T03:00:14.083Z,503.57
2019-03-22T03:02:45.531Z,319.73
2019-03-22T03:05:16.977Z,582.57
2019-03-22T03:07:48.468Z,295.60
2019-03-22T03:10:19.560Z,189.57
2019-03-22T03:12:50.698Z,412.40
2019-03-22T03:15:21.823Z,194.40
2019-03-22T03:17:52.997Z,284.93
2019-03-22T03:20:23.903Z,727.47
2019-03-22T03:22:55.313Z,211.67
2019-03-22T03:25:26.791Z,134.07
2019-03-22T03:27:57.885Z,485.87
2019-03-22T03:30:28.881Z,577.10
2019-03-22T03:33:00.015Z,340.80
2019-03-22T03:35:31.057Z,142.00
2019-03-22T03:38:02.085Z,197.87
2019-03-22T03:40:33.431Z,231.80
2019-03-22T03:43:04.794Z,231.30
2019-03-22T03:45:37.048Z,213.07
2019-03-22T03:48:09.813Z,305.63
2019-03-22T03:50:41.080Z,251.67
2019-03-22T03:53:12.334Z,243.27
2019-03-22T03:55:46.612Z,217.63
2019-03-22T03:58:17.743Z,558.30
2019-03-22T04:00:49.020Z,581.50
2019-03-22T04:03:20.558Z,670.07
2019-03-22T04:05:51.701Z,473.30
2019-03-22T04:08:22.619Z,360.03
2019-03-22T04:10:53.899Z,302.20
2019-03-22T04:13:25.312Z,313.93
2019-03-22T04:15:56.471Z,425.90
2019-03-22T04:18:27.582Z,317.77
2019-03-22T04:20:58.612Z,501.90
2019-03-22T04:23:29.491Z,361.03
2019-03-22T04:26:00.610Z,405.83
2019-03-22T04:28:31.852Z,308.97
2019-03-22T04:31:02.889Z,190.47
2019-03-22T04:33:33.844Z,312.17
2019-03-22T04:36:04.869Z,410.43
2019-03-22T04:38:36.344Z,504.43
2019-03-22T04:41:07.454Z,367.00
2019-03-22T04:43:38.627Z,271.03
2019-03-22T04:46:11.070Z,211.63
2019-03-22T04:48:42.752Z,208.90
2019-03-22T04:51:14.762Z,221.23
2019-03-22T04:53:57.926Z,341.27
2019-03-22T04:56:32.262Z,236.50
2019-03-22T04:59:05.443Z,159.17
2019-03-22T05:01:38.057Z,502.73
2019-03-22T05:04:17.612Z,321.73
2019-03-22T05:06:50.176Z,344.13
2019-03-22T05:09:23.626Z,167.87
2019-03-22T05:11:57.030Z,277.57
2019-03-22T05:14:30.159Z,209.00
2019-03-22T05:17:01.994Z,156.10
2019-03-22T05:19:37.890Z,480.47
2019-03-22T05:22:13.157Z,207.83
2019-03-22T05:24:49.641Z,289.10
2019-03-22T05:27:21.971Z,258.63
2019-03-22T05:29:57.071Z,251.03
2019-03-22T05:32:28.153Z,110.93
2019-03-22T05:34:59.744Z,200.70
2019-03-22T05:37:31.390Z,286.80
2019-03-22T05:40:02.962Z,205.63
2019-03-22T05:42:33.919Z,183.27
2019-03-22T05:45:05.568Z,214.97
2019-03-22T05:47:37.509Z,312.03
2019-03-22T05:50:09.247Z,233.00
2019-03-22T05:52:40.324Z,299.27
2019-03-22T05:55:11.751Z,573.27
2019-03-22T05:57:42.808Z,294.27
2019-03-22T06:00:16.096Z,172.43
2019-03-22T06:02:47.225Z,164.20
2019-03-22T06:05:18.241Z,141.77
2019-03-22T06:07:49.280Z,117.33
2019-03-22T06:10:20.470Z,88.40
2019-03-22T06:12:51.494Z,132.53
2019-03-22T06:15:22.611Z,167.63
2019-03-22T06:17:54.001Z,106.80
2019-03-22T06:20:25.145Z,153.57
2019-03-22T06:22:57.055Z,137.17
2019-03-22T06:25:28.067Z,156.23
2019-03-22T06:27:59.223Z,109.57
2019-03-22T06:30:30.309Z,81.53
2019-03-22T06:33:01.312Z,107.73
2019-03-22T06:35:32.515Z,86.90
2019-03-22T06:38:03.626Z,84.10
2019-03-22T06:40:34.785Z,90.53
2019-03-22T06:43:05.974Z,80.23
2019-03-22T06:45:37.279Z,81.30
2019-03-22T06:48:09.083Z,106.37
2019-03-22T06:50:40.216Z,82.63
2019-03-22T06:53:11.359Z,85.10
2019-03-22T06:55:42.491Z,75.80
2019-03-22T06:58:14.038Z,64.77
2019-03-22T07:00:45.447Z,73.90
2019-03-22T07:03:16.623Z,89.17
2019-03-22T07:05:48.049Z,73.00
2019-03-22T07:08:19.572Z,58.93
2019-03-22T07:10:50.679Z,60.77
2019-03-22T07:13:21.882Z,63.30
2019-03-22T07:15:52.887Z,60.57
2019-03-22T07:18:24.432Z,56.20
2019-03-22T07:20:55.824Z,57.13
2019-03-22T07:23:45.977Z,54.63
2019-03-22T07:26:17.243Z,57.00
2019-03-22T07:28:48.368Z,55.53
2019-03-22T07:31:19.386Z,56.97
2019-03-22T07:33:50.553Z,57.80
2019-03-22T07:36:21.690Z,56.20
2019-03-22T07:38:53.010Z,54.53
2019-03-22T07:41:24.450Z,53.90
2019-03-22T07:43:55.519Z,56.67
2019-03-22T07:46:26.615Z,63.40
2019-03-22T07:48:57.779Z,63.13
2019-03-22T07:51:29.014Z,69.57
2019-03-22T07:54:03.502Z,59.47
2019-03-22T07:56:33.808Z,59.67
2019-03-22T07:59:04.994Z,62.57
2019-03-22T08:01:36.073Z,61.63
2019-03-22T08:04:07.251Z,59.43
2019-03-22T08:06:38.448Z,57.57
2019-03-22T08:09:10.206Z,57.30
2019-03-22T08:11:41.638Z,59.17
2019-03-22T08:14:12.801Z,57.03
2019-03-22T08:16:43.870Z,57.77
2019-03-22T08:19:15.090Z,56.57
2019-03-22T08:21:47.165Z,56.97
2019-03-22T08:24:18.232Z,62.23
2019-03-22T08:26:49.638Z,63.30
2019-03-22T08:29:20.629Z,59.63
2019-03-22T08:31:52.109Z,55.37
2019-03-22T08:34:23.605Z,55.33
2019-03-22T08:36:54.733Z,51.47
2019-03-22T08:39:26.141Z,59.73
2019-03-22T08:41:57.140Z,58.03
2019-03-22T08:44:28.252Z,56.63
2019-03-22T08:46:59.332Z,58.50
2019-03-22T08:49:30.354Z,58.63
2019-03-22T08:52:01.611Z,58.93
2019-03-22T08:54:33.308Z,57.03
2019-03-22T08:57:04.515Z,61.70
2019-03-22T08:59:35.675Z,65.30
2019-03-22T09:02:08.349Z,61.83
2019-03-22T09:04:39.892Z,62.63
2019-03-22T09:07:11.271Z,68.30
2019-03-22T09:09:42.333Z,71.47
2019-03-22T09:12:13.488Z,68.03
2019-03-22T09:14:45.042Z,66.97
2019-03-22T09:17:16.224Z,68.50
2019-03-22T09:19:47.322Z,68.73
2019-03-22T09:22:18.560Z,67.10
2019-03-22T09:24:49.576Z,66.27
2019-03-22T09:27:20.567Z,61.23
2019-03-22T09:29:52.284Z,59.87
2019-03-22T09:32:23.716Z,61.10
2019-03-22T09:34:55.230Z,69.37
2019-03-22T09:37:26.941Z,62.50
2019-03-22T09:39:58.539Z,58.97
2019-03-22T09:42:29.784Z,55.03
2019-03-22T09:45:00.872Z,49.67
2019-03-22T09:47:32.017Z,48.40
2019-03-22T09:50:03.612Z,58.27
2019-03-22T09:52:34.730Z,52.97
2019-03-22T09:55:13.500Z,51.40
2019-03-22T09:57:40.151Z,50.37
2019-03-22T10:00:11.890Z,46.93
2019-03-22T10:02:43.221Z,49.60
2019-03-22T10:05:14.637Z,47.50
2019-03-22T10:07:46.077Z,44.00
2019-03-22T10:10:17.288Z,42.13
2019-03-22T10:12:48.773Z,43.23
2019-03-22T10:15:20.083Z,41.30
2019-03-22T10:17:51.573Z,37.43
2019-03-22T10:20:22.754Z,36.83
2019-03-22T10:22:54.141Z,36.33
2019-03-22T10:25:27.180Z,35.27
2019-03-22T10:27:58.786Z,29.00
2019-03-22T10:30:30.006Z,25.57
2019-03-22T10:33:01.482Z,28.23
2019-03-22T10:35:32.895Z,22.23
2019-03-22T10:38:06.307Z,21.83
2019-03-22T10:40:37.358Z,24.80
2019-03-22T10:43:08.665Z,17.90
2019-03-22T10:45:39.940Z,20.93
2019-03-22T10:48:11.240Z,18.23
2019-03-22T10:50:42.278Z,18.87
2019-03-22T10:53:13.403Z,21.07
2019-03-22T10:55:45.104Z,19.00
2019-03-22T10:58:21.186Z,17.77
2019-03-22T11:00:49.043Z,19.10
2019-03-22T11:03:20.349Z,20.63
2019-03-22T11:05:51.577Z,18.10
2019-03-22T11:08:22.769Z,20.50
2019-03-22T11:10:54.103Z,16.33
2019-03-22T11:13:26.184Z,17.43
2019-03-22T11:15:57.602Z,16.37
2019-03-22T11:18:37.067Z,19.20
2019-03-22T11:21:05.402Z,17.50
2019-03-22T11:23:35.293Z,17.47
2019-03-22T11:26:06.906Z,22.03
2019-03-22T11:28:38.140Z,17.33
2019-03-22T11:31:09.358Z,17.03
2019-03-22T11:33:40.341Z,18.17
2019-03-22T11:36:11.560Z,16.40
2019-03-22T11:38:42.941Z,16.43
2019-03-22T11:41:14.121Z,14.27
2019-03-22T11:43:45.757Z,13.70
2019-03-22T11:46:16.908Z,16.63
2019-03-22T11:48:47.982Z,20.63
2019-03-22T11:51:19.195Z,17.70
2019-03-22T11:53:50.658Z,13.17
2019-03-22T11:56:21.987Z,12.90
2019-03-22T11:58:53.477Z,12.33
2019-03-22T12:01:24.730Z,11.30
2019-03-22T12:03:55.890Z,15.43
2019-03-22T12:06:27.445Z,12.53
2019-03-22T12:08:58.546Z,11.93
2019-03-22T12:11:31.990Z,11.90
2019-03-22T12:14:03.030Z,10.50
2019-03-22T12:16:34.021Z,9.63
2019-03-22T12:19:05.253Z,10.17
2019-03-22T12:21:36.364Z,10.90
2019-03-22T12:24:07.432Z,11.87
2019-03-22T12:26:41.316Z,13.20
2019-03-22T12:29:12.753Z,10.30
2019-03-22T12:31:44.172Z,9.73
2019-03-22T12:34:15.405Z,11.03
2019-03-22T12:36:46.665Z,10.53
2019-03-22T12:39:17.657Z,9.60
2019-03-22T12:41:48.784Z,11.60
2019-03-22T12:44:39.252Z,11.03
2019-03-22T12:47:10.474Z,12.50
2019-03-22T12:49:42.738Z,9.63
2019-03-22T12:52:13.841Z,11.70
2019-03-22T12:54:44.955Z,13.87
2019-03-22T12:57:16.011Z,11.33
2019-03-22T12:59:47.130Z,10.60
2019-03-22T13:02:18.633Z,10.20
2019-03-22T13:04:50.120Z,10.13
2019-03-22T13:07:21.178Z,11.47
2019-03-22T13:09:52.582Z,11.37
2019-03-22T13:12:24.114Z,13.70
2019-03-22T13:14:56.721Z,14.17
2019-03-22T13:17:27.822Z,10.50
2019-03-22T13:19:59.006Z,9.97
2019-03-22T13:22:29.969Z,9.13
2019-03-22T13:25:01.876Z,8.80
2019-03-22T13:27:33.350Z,10.30
2019-03-22T13:30:04.836Z,14.17
2019-03-22T13:32:37.216Z,11.67
2019-03-22T13:35:09.582Z,11.87
2019-03-22T13:37:40.629Z,12.00
2019-03-22T13:40:12.032Z,8.30
2019-03-22T13:42:43.175Z,7.70
2019-03-22T13:45:14.670Z,7.30
2019-03-22T13:47:45.828Z,7.40
2019-03-22T13:50:17.002Z,6.67
2019-03-22T13:52:49.335Z,9.30
2019-03-22T13:55:20.432Z,6.00
2019-03-22T13:57:51.530Z,7.13
2019-03-22T14:00:22.849Z,11.07
2019-03-22T14:03:03.030Z,10.27
2019-03-22T14:05:26.781Z,7.33
2019-03-22T14:07:57.840Z,7.37
2019-03-22T14:10:36.320Z,11.77
2019-03-22T14:13:08.307Z,7.67
2019-03-22T14:15:39.885Z,8.40
2019-03-22T14:18:10.953Z,6.60
2019-03-22T14:20:42.157Z,7.10
2019-03-22T14:23:13.282Z,6.80
2019-03-22T14:25:44.432Z,5.67
2019-03-22T14:28:15.851Z,8.63
2019-03-22T14:30:46.979Z,7.63
2019-03-22T14:33:18.367Z,6.03
2019-03-22T14:35:49.776Z,5.97
2019-03-22T14:38:20.909Z,6.50
2019-03-22T14:40:52.002Z,4.93
2019-03-22T14:43:23.029Z,6.50
2019-03-22T14:45:54.281Z,6.20
2019-03-22T14:48:25.651Z,8.63
2019-03-22T14:50:56.681Z,8.90
2019-03-22T14:53:27.621Z,7.07
2019-03-22T14:55:58.600Z,6.90
2019-03-22T14:58:30.008Z,8.20
2019-03-22T15:01:01.147Z,7.27
2019-03-22T15:03:32.281Z,5.90
2019-03-22T15:06:03.526Z,8.60
2019-03-22T15:08:34.603Z,7.73
2019-03-22T15:11:06.062Z,8.80
2019-03-22T15:13:59.452Z,13.33
2019-03-22T15:16:47.749Z,8.17
2019-03-22T15:19:42.627Z,7.13
2019-03-22T15:22:31.181Z,7.47
2019-03-22T15:25:24.550Z,8.23
2019-03-22T15:28:17.665Z,6.20
2019-03-22T15:31:06.562Z,7.70
2019-03-22T15:33:59.373Z,8.60
2019-03-22T15:36:44.780Z,7.63
2019-03-22T15:39:46.952Z,6.97
2019-03-22T15:42:18.114Z,7.10
2019-03-22T15:44:49.450Z,8.70
2019-03-22T15:47:20.581Z,7.33
2019-03-22T15:49:51.821Z,9.53
2019-03-22T15:52:25.595Z,6.90
2019-03-22T15:54:57.020Z,7.43
2019-03-22T15:57:28.116Z,7.20
2019-03-22T15:59:59.248Z,7.80
2019-03-22T16:02:30.604Z,15.43
2019-03-22T16:05:01.730Z,7.77
2019-03-22T16:07:37.182Z,6.20
2019-03-22T16:10:09.701Z,8.00
2019-03-22T16:12:41.122Z,8.10
2019-03-22T16:15:12.665Z,8.43
2019-03-22T16:17:43.770Z,7.50
2019-03-22T16:20:15.121Z,6.40
2019-03-22T16:22:46.503Z,6.87
2019-03-22T16:25:17.589Z,7.37
2019-03-22T16:27:48.721Z,8.77
2019-03-22T16:30:19.963Z,8.07
2019-03-22T16:32:51.078Z,7.07
2019-03-22T16:35:22.190Z,7.17
2019-03-22T16:37:53.393Z,6.60
2019-03-22T16:40:24.795Z,8.67
2019-03-22T16:42:55.788Z,9.57
2019-03-22T16:45:39.279Z,10.33
2019-03-22T16:48:11.215Z,8.67
2019-03-22T16:50:43.043Z,8.23
2019-03-22T16:53:14.509Z,10.63
2019-03-22T16:55:46.560Z,9.70
2019-03-22T16:58:17.888Z,12.00
2019-03-22T17:00:50.001Z,8.00
2019-03-22T17:03:21.583Z,8.90
2019-03-22T17:05:53.050Z,9.60
2019-03-22T17:08:24.404Z,7.37
2019-03-22T17:10:55.679Z,7.73
2019-03-22T17:13:27.313Z,9.37
2019-03-22T17:15:59.286Z,8.50
2019-03-22T17:18:30.594Z,9.17
2019-03-22T17:21:02.477Z,10.47
2019-03-22T17:23:33.982Z,9.07
2019-03-22T17:26:05.355Z,9.17
2019-03-22T17:28:36.562Z,9.83
2019-03-22T17:31:07.895Z,10.63
2019-03-22T17:33:39.176Z,9.87
2019-03-22T17:36:10.887Z,10.07
2019-03-22T17:38:42.433Z,8.77
2019-03-22T17:41:14.598Z,8.37
2019-03-22T17:43:45.886Z,8.13
2019-03-22T17:46:17.219Z,9.40
2019-03-22T17:48:48.578Z,8.20
2019-03-22T17:51:20.234Z,8.40
2019-03-22T17:53:51.547Z,6.87
2019-03-22T17:56:23.463Z,5.97
2019-03-22T17:58:55.482Z,10.77
2019-03-22T18:01:26.869Z,9.43
2019-03-22T18:03:58.595Z,10.53
2019-03-22T18:06:29.942Z,17.13
2019-03-22T18:09:01.245Z,10.60
2019-03-22T18:11:32.558Z,12.40
2019-03-22T18:14:04.316Z,9.50
2019-03-22T18:16:35.556Z,10.57
2019-03-22T18:19:06.793Z,10.60
2019-03-22T18:21:38.019Z,12.97
2019-03-22T18:24:09.258Z,11.17
2019-03-22T18:26:41.460Z,14.63
2019-03-22T18:29:13.021Z,13.63
2019-03-22T18:31:44.229Z,12.57
2019-03-22T18:34:15.481Z,11.00
2019-03-22T18:36:46.785Z,10.23
2019-03-22T18:39:18.394Z,11.77
2019-03-22T18:41:50.135Z,10.03
2019-03-22T18:44:21.435Z,10.27
2019-03-22T18:46:52.996Z,10.20
2019-03-22T18:49:24.168Z,15.03
2019-03-22T18:51:56.063Z,11.93
2019-03-22T18:54:27.711Z,14.17
2019-03-22T18:56:59.778Z,15.40
2019-03-22T18:59:30.949Z,16.83
2019-03-22T19:02:02.267Z,14.67
2019-03-22T19:04:33.508Z,12.77
2019-03-22T19:07:04.739Z,11.97
2019-03-22T19:09:36.220Z,13.53
2019-03-22T19:12:07.779Z,17.47
2019-03-22T19:14:39.124Z,16.03
2019-03-22T19:17:10.386Z,13.80
2019-03-22T19:19:41.627Z,11.77
2019-03-22T19:22:13.395Z,12.37
2019-03-22T19:24:44.986Z,10.27
2019-03-22T19:27:16.255Z,10.53
2019-03-22T19:29:47.854Z,11.73
2019-03-22T19:32:19.093Z,10.57
2019-03-22T19:34:54.330Z,13.17
2019-03-22T19:37:23.576Z,9.57
2019-03-22T19:39:55.262Z,11.10
2019-03-22T19:42:26.511Z,12.23
2019-03-22T19:44:58.190Z,12.40
2019-03-22T19:47:29.799Z,12.20
2019-03-22T19:50:01.320Z,12.97
2019-03-22T19:52:32.577Z,12.40
2019-03-22T19:55:03.838Z,16.17
2019-03-22T19:57:35.113Z,17.87
2019-03-22T20:00:07.578Z,20.43
2019-03-22T20:02:38.903Z,19.73
2019-03-22T20:05:10.688Z,18.80
2019-03-22T20:07:41.828Z,20.53
2019-03-22T20:10:15.113Z,47.47
2019-03-22T20:12:46.414Z,26.03
2019-03-22T20:15:17.913Z,25.37
2019-03-22T20:17:49.206Z,17.37
2019-03-22T20:20:20.682Z,13.60
2019-03-22T20:22:51.985Z,14.33
2019-03-22T20:25:23.294Z,12.50
2019-03-22T20:27:54.452Z,15.60
2019-03-22T20:30:25.790Z,14.37
2019-03-22T20:32:57.082Z,17.43
2019-03-22T20:35:28.395Z,15.73
2019-03-22T20:37:59.676Z,14.47
2019-03-22T20:40:31.292Z,15.10
2019-03-22T20:43:02.814Z,16.43
2019-03-22T20:45:34.045Z,15.17
2019-03-22T20:48:05.332Z,14.90
2019-03-22T20:50:36.649Z,13.53
2019-03-22T20:53:07.904Z,13.27
2019-03-22T20:55:39.417Z,13.50
2019-03-22T20:58:10.737Z,16.13
2019-03-22T21:00:42.272Z,15.17
2019-03-22T21:03:13.528Z,12.20
2019-03-22T21:05:45.398Z,14.80
2019-03-22T21:08:16.838Z,11.87
2019-03-22T21:10:48.507Z,14.80
2019-03-22T21:13:19.632Z,14.73
2019-03-22T21:15:51.564Z,11.93
2019-03-22T21:18:22.845Z,13.80
2019-03-22T21:20:54.494Z,11.67
2019-03-22T21:23:35.712Z,15.20
2019-03-22T21:25:59.430Z,11.57
2019-03-22T21:28:30.663Z,13.10
2019-03-22T21:31:02.116Z,15.77
2019-03-22T21:33:33.731Z,13.23
2019-03-22T21:36:04.946Z,15.83
2019-03-22T21:38:36.236Z,12.00
2019-03-22T21:41:07.639Z,12.73
2019-03-22T21:43:38.826Z,12.70
2019-03-22T21:46:09.830Z,11.83
2019-03-22T21:48:40.821Z,13.07
2019-03-22T21:51:12.012Z,12.37
2019-03-22T21:53:43.743Z,13.03
2019-03-22T21:56:15.127Z,14.13
2019-03-22T21:58:46.407Z,16.73
2019-03-22T22:01:17.721Z,17.87
2019-03-22T22:03:48.858Z,17.90
2019-03-22T22:06:20.330Z,14.30
2019-03-22T22:08:51.551Z,17.67
2019-03-22T22:11:22.989Z,17.33
2019-03-22T22:13:54.005Z,14.37
2019-03-22T22:16:25.410Z,13.70
2019-03-22T22:18:57.095Z,14.43
2019-03-22T22:21:28.350Z,16.23
2019-03-22T22:24:00.096Z,21.37
2019-03-22T22:26:31.673Z,16.07
2019-03-22T22:29:02.958Z,14.00
2019-03-22T22:31:34.263Z,16.07
2019-03-22T22:34:05.449Z,14.50
2019-03-22T22:36:36.736Z,15.60
2019-03-22T22:39:08.641Z,14.83
2019-03-22T22:41:39.853Z,13.67
2019-03-22T22:44:11.084Z,17.23
2019-03-22T22:46:42.222Z,15.63
2019-03-22T22:49:13.487Z,14.67
2019-03-22T22:51:44.673Z,12.87
2019-03-22T22:54:16.343Z,14.23
2019-03-22T22:56:47.463Z,13.40
2019-03-22T22:59:19.044Z,12.60
2019-03-22T23:01:50.429Z,16.27
2019-03-22T23:04:21.412Z,13.13
2019-03-22T23:06:52.685Z,13.30
2019-03-22T23:09:23.635Z,13.57
2019-03-22T23:11:54.646Z,13.47
2019-03-22T23:14:26.046Z,15.30
2019-03-22T23:16:57.463Z,15.90
2019-03-22T23:19:28.626Z,16.00
2019-03-22T23:21:59.900Z,15.97
2019-03-22T23:24:31.310Z,14.97
2019-03-22T23:27:02.384Z,17.73
2019-03-22T23:29:33.511Z,16.63
2019-03-22T23:32:04.568Z,20.40
2019-03-22T23:34:35.612Z,18.67
2019-03-22T23:37:07.288Z,18.03
2019-03-22T23:39:38.432Z,20.63
2019-03-22T23:42:10.632Z,16.40
2019-03-22T23:44:48.753Z,20.30
2019-03-22T23:47:20.527Z,17.07
2019-03-22T23:49:51.548Z,21.03
2019-03-22T23:52:23.043Z,19.23
2019-03-22T23:54:54.228Z,19.73
2019-03-22T23:57:25.428Z,17.03
2019-03-22T23:59:56.785Z,21.53
